Time;durP1;ratioP1;P1;durP2;ratioP2;P2;SDS_P1;SDS_P2;PMS_P1;PMS_P2;Temp;Humidity;BMP_temperature;BMP_pressure;BME280_temperature;BME280_humidity;BME280_pressure;Samples;Min_cycle;Max_cycle;Signal;HPM_P1;HPM_P2
2022/11/13 00:00:05;;;;;;;12.35;10.02;;;6.70;99.90;;;;;;5108337;27;20525;-67
2022/11/13 00:02:33;;;;;;;14.32;10.25;;;6.70;99.90;;;;;;5095467;27;20501;-67
2022/11/13 00:04:58;;;;;;;12.68;10.27;;;6.70;99.90;;;;;;5112088;27;20159;-67
2022/11/13 00:07:24;;;;;;;13.18;9.70;;;6.70;99.90;;;;;;5105705;27;20133;-67
2022/11/13 00:09:50;;;;;;;12.70;10.48;;;6.80;99.90;;;;;;5110150;27;20039;-67
2022/11/13 00:12:15;;;;;;;16.13;10.82;;;6.80;99.90;;;;;;5109945;27;20121;-66
2022/11/13 00:14:41;;;;;;;13.90;10.38;;;6.80;99.90;;;;;;5107137;27;20082;-67
2022/11/13 00:17:06;;;;;;;11.45;10.25;;;6.90;99.90;;;;;;5108480;27;20044;-66
2022/11/13 00:19:32;;;;;;;13.50;11.20;;;6.90;99.90;;;;;;5110121;27;20110;-67
2022/11/13 00:21:59;;;;;;;14.70;11.32;;;6.90;99.90;;;;;;5103913;28;20054;-66
2022/11/13 00:24:24;;;;;;;16.08;10.70;;;7.00;99.90;;;;;;5128657;27;20077;-67
2022/11/13 00:26:50;;;;;;;12.10;10.27;;;7.10;99.90;;;;;;5109209;27;20074;-67
2022/11/13 00:29:16;;;;;;;15.20;10.25;;;7.10;99.90;;;;;;5112982;27;20038;-67
2022/11/13 00:31:41;;;;;;;14.38;10.32;;;7.10;99.90;;;;;;5125103;27;20035;-68
2022/11/13 00:34:09;;;;;;;13.32;10.27;;;7.20;99.90;;;;;;5112350;27;20164;-67
2022/11/13 00:36:35;;;;;;;13.80;10.38;;;7.20;99.90;;;;;;5110646;28;20042;-66
2022/11/13 00:39:01;;;;;;;13.05;10.45;;;7.20;99.90;;;;;;5109113;27;20375;-67
2022/11/13 00:41:26;;;;;;;11.68;9.75;;;7.20;99.90;;;;;;5102311;28;20056;-67
2022/11/13 00:43:52;;;;;;;11.80;9.85;;;7.20;99.90;;;;;;5104642;28;20074;-66
2022/11/13 00:46:18;;;;;;;11.27;9.48;;;7.20;99.90;;;;;;5088578;28;20112;-67
2022/11/13 00:48:44;;;;;;;11.13;9.20;;;7.20;99.90;;;;;;5107338;28;20036;-67
2022/11/13 00:51:09;;;;;;;13.63;9.60;;;7.20;99.90;;;;;;5106586;28;20088;-66
2022/11/13 00:53:36;;;;;;;13.88;9.52;;;7.20;99.90;;;;;;5101487;28;20050;-66
2022/11/13 00:56:02;;;;;;;11.82;9.27;;;7.20;99.90;;;;;;5101216;28;21372;-69
2022/11/13 00:58:27;;;;;;;12.45;9.80;;;7.20;99.90;;;;;;5105360;28;20047;-67
2022/11/13 01:00:53;;;;;;;11.13;8.50;;;7.20;99.90;;;;;;5105741;28;20035;-67
2022/11/13 01:03:19;;;;;;;14.10;9.00;;;7.20;99.90;;;;;;5107887;28;20565;-67
2022/11/13 01:05:45;;;;;;;11.45;9.15;;;7.10;99.90;;;;;;5111946;28;20516;-66
2022/11/13 01:08:13;;;;;;;13.07;9.23;;;7.10;99.90;;;;;;5107848;28;20035;-67
2022/11/13 01:10:44;;;;;;;13.20;9.95;;;7.10;99.90;;;;;;5111074;28;20044;-66
2022/11/13 01:13:10;;;;;;;13.57;9.02;;;7.10;99.90;;;;;;5108428;28;20562;-67
2022/11/13 01:15:41;;;;;;;11.98;9.85;;;7.10;99.90;;;;;;5088203;28;20130;-66
2022/11/13 01:18:07;;;;;;;12.77;9.32;;;7.20;99.90;;;;;;5110377;28;20075;-68
2022/11/13 01:20:33;;;;;;;13.25;10.02;;;7.10;99.90;;;;;;5108564;28;20144;-67
2022/11/13 01:22:59;;;;;;;10.50;8.80;;;7.20;99.90;;;;;;5106535;28;20032;-66
2022/11/13 01:25:25;;;;;;;10.18;9.02;;;7.20;99.90;;;;;;5113087;28;20051;-66
2022/11/13 01:27:51;;;;;;;12.88;9.70;;;7.20;99.90;;;;;;5107517;28;20046;-67
2022/11/13 01:30:16;;;;;;;12.48;9.07;;;7.30;99.90;;;;;;5109898;28;20048;-67
2022/11/13 01:32:42;;;;;;;10.98;8.93;;;7.30;99.90;;;;;;5106033;28;20587;-66
2022/11/13 01:35:08;;;;;;;12.65;9.45;;;7.30;99.90;;;;;;5111693;28;20397;-68
2022/11/13 01:37:34;;;;;;;10.20;9.00;;;7.30;99.90;;;;;;5091320;28;20572;-66
2022/11/13 01:39:59;;;;;;;10.50;8.73;;;7.30;99.90;;;;;;5087457;28;20043;-67
2022/11/13 01:42:25;;;;;;;11.00;9.35;;;7.30;99.90;;;;;;5106679;28;20547;-68
2022/11/13 01:44:59;;;;;;;11.63;9.05;;;7.30;99.90;;;;;;5103853;28;20028;-67
2022/11/13 01:47:25;;;;;;;12.80;8.25;;;7.20;99.90;;;;;;5087686;28;20043;-66
2022/11/13 01:49:54;;;;;;;12.90;9.00;;;7.20;99.90;;;;;;5107870;28;20135;-68
2022/11/13 01:52:33;;;;;;;12.85;9.05;;;7.20;99.90;;;;;;5106036;28;20462;-67
2022/11/13 01:55:12;;;;;;;11.30;9.23;;;7.20;99.90;;;;;;5104941;28;20188;-67
2022/11/13 01:57:38;;;;;;;11.52;9.45;;;7.10;99.90;;;;;;5102885;28;20043;-67
2022/11/13 02:00:07;;;;;;;12.25;9.00;;;7.10;99.90;;;;;;5083723;28;20032;-65
2022/11/13 02:02:33;;;;;;;9.52;8.48;;;7.10;99.90;;;;;;5122682;27;20035;-66
2022/11/13 02:04:59;;;;;;;10.38;8.40;;;7.10;99.90;;;;;;5102511;28;20448;-67
2022/11/13 02:07:25;;;;;;;10.63;8.88;;;7.00;99.90;;;;;;5101203;28;20467;-65
2022/11/13 02:09:54;;;;;;;11.82;8.88;;;7.00;99.90;;;;;;5108720;28;20490;-67
2022/11/13 02:12:29;;;;;;;13.88;9.68;;;6.90;99.90;;;;;;5105697;28;20082;-68
2022/11/13 02:14:58;;;;;;;13.07;9.68;;;7.00;99.90;;;;;;5109963;28;20119;-67
2022/11/13 02:17:31;;;;;;;10.77;9.05;;;7.00;99.90;;;;;;5105976;28;20422;-67
2022/11/13 02:20:00;;;;;;;12.95;9.65;;;7.00;99.90;;;;;;5104969;28;20039;-67
2022/11/13 02:23:00;;;;;;;11.30;9.13;;;7.00;99.90;;;;;;5104428;28;20059;-65
2022/11/13 02:25:28;;;;;;;12.15;9.32;;;7.00;99.90;;;;;;5088390;28;20431;-67
2022/11/13 02:27:54;;;;;;;14.45;9.88;;;7.00;99.90;;;;;;5107137;28;20109;-67
2022/11/13 02:30:28;;;;;;;10.73;9.35;;;7.00;99.90;;;;;;5106692;28;20051;-65
2022/11/13 02:32:56;;;;;;;15.30;9.95;;;7.00;99.90;;;;;;5108726;28;20063;-66
2022/11/13 02:35:37;;;;;;;13.20;9.88;;;7.00;99.90;;;;;;5109463;28;20049;-65
2022/11/13 02:38:04;;;;;;;12.98;9.60;;;7.10;99.90;;;;;;5110097;28;20039;-66
2022/11/13 02:40:31;;;;;;;12.85;9.45;;;7.10;99.90;;;;;;5107633;28;20055;-68
2022/11/13 02:42:57;;;;;;;11.20;9.25;;;7.10;99.90;;;;;;5103928;28;20115;-67
2022/11/13 02:45:23;;;;;;;10.80;8.80;;;7.20;99.90;;;;;;5103076;27;20122;-66
2022/11/13 02:47:49;;;;;;;13.20;9.40;;;7.20;99.90;;;;;;5105979;28;20050;-67
2022/11/13 02:50:16;;;;;;;12.02;8.85;;;7.10;99.90;;;;;;5105512;28;20031;-67
2022/11/13 02:52:41;;;;;;;12.38;8.80;;;7.10;99.90;;;;;;5098205;28;20048;-68
2022/11/13 02:55:07;;;;;;;12.35;8.95;;;7.10;99.90;;;;;;5100051;28;20558;-66
2022/11/13 02:57:33;;;;;;;13.57;8.45;;;7.00;99.90;;;;;;5102380;28;20039;-66
2022/11/13 02:59:59;;;;;;;10.52;8.32;;;7.00;99.90;;;;;;5106697;28;20398;-67
2022/11/13 03:02:24;;;;;;;11.02;8.65;;;7.00;99.90;;;;;;5118751;27;21832;-65
2022/11/13 03:04:50;;;;;;;10.27;8.43;;;7.00;99.90;;;;;;5103055;28;20078;-66
2022/11/13 03:07:16;;;;;;;11.38;8.82;;;7.00;99.90;;;;;;5101221;28;20153;-66
2022/11/13 03:09:41;;;;;;;10.43;8.68;;;6.90;99.90;;;;;;5106656;27;20039;-66
2022/11/13 03:12:08;;;;;;;11.65;8.75;;;7.00;99.90;;;;;;5102300;28;20036;-66
2022/11/13 03:14:34;;;;;;;12.52;8.98;;;6.90;99.90;;;;;;5104213;28;20123;-67
2022/11/13 03:17:00;;;;;;;11.82;9.48;;;7.00;99.90;;;;;;5097032;28;20153;-67
2022/11/13 03:19:25;;;;;;;13.82;9.98;;;7.00;99.90;;;;;;5071778;28;20048;-66
2022/11/13 03:21:51;;;;;;;12.20;9.50;;;7.00;99.90;;;;;;5101087;28;20032;-67
2022/11/13 03:24:17;;;;;;;13.48;10.20;;;7.00;99.90;;;;;;5103850;28;20464;-66
2022/11/13 03:26:42;;;;;;;12.55;9.82;;;7.00;99.90;;;;;;5084907;28;20043;-68
2022/11/13 03:29:08;;;;;;;12.48;9.80;;;7.00;99.90;;;;;;5106225;28;20040;-67
2022/11/13 03:31:34;;;;;;;14.25;10.27;;;7.00;99.90;;;;;;5104919;28;20371;-66
2022/11/13 03:33:59;;;;;;;12.38;10.05;;;7.10;99.90;;;;;;5084506;28;20039;-66
2022/11/13 03:36:25;;;;;;;11.73;9.65;;;7.10;99.90;;;;;;5103193;28;20039;-66
2022/11/13 03:38:51;;;;;;;12.85;9.90;;;7.10;99.90;;;;;;5102836;28;20034;-66
2022/11/13 03:41:17;;;;;;;11.88;9.50;;;7.10;99.90;;;;;;5101147;27;20047;-66
2022/11/13 03:43:42;;;;;;;10.70;9.15;;;7.10;99.90;;;;;;5075583;28;20036;-66
2022/11/13 03:46:08;;;;;;;13.65;10.10;;;7.10;99.90;;;;;;5102629;28;20367;-65
2022/11/13 03:48:34;;;;;;;12.45;9.57;;;7.10;99.90;;;;;;5102984;28;20126;-67
2022/11/13 03:51:00;;;;;;;13.20;9.43;;;7.00;99.90;;;;;;5103493;28;20039;-67
2022/11/13 03:53:25;;;;;;;13.98;10.13;;;7.00;99.90;;;;;;5096186;28;20108;-66
2022/11/13 03:55:52;;;;;;;12.23;9.10;;;7.00;99.90;;;;;;5102948;28;20032;-65
2022/11/13 03:58:17;;;;;;;14.27;9.23;;;6.90;99.90;;;;;;5100432;28;20085;-67
2022/11/13 04:00:44;;;;;;;11.07;9.50;;;6.90;99.90;;;;;;5101093;28;20040;-66
2022/11/13 04:03:10;;;;;;;11.85;9.52;;;6.80;99.90;;;;;;5096704;28;20474;-66
2022/11/13 04:05:36;;;;;;;11.05;9.02;;;6.80;99.90;;;;;;5102491;28;20778;-64
2022/11/13 04:08:02;;;;;;;12.10;9.73;;;6.70;99.90;;;;;;5094951;28;20036;-65
2022/11/13 04:10:28;;;;;;;11.40;8.70;;;6.70;99.90;;;;;;5105170;28;20397;-65
2022/11/13 04:12:54;;;;;;;10.15;8.55;;;6.70;99.90;;;;;;5079884;28;20047;-65
2022/11/13 04:15:20;;;;;;;11.48;9.15;;;6.60;99.90;;;;;;5096868;28;20051;-66
2022/11/13 04:17:45;;;;;;;10.23;8.63;;;6.50;99.90;;;;;;5104005;28;20050;-66
2022/11/13 04:20:11;;;;;;;11.18;8.95;;;6.50;99.90;;;;;;5101863;28;20043;-66
2022/11/13 04:22:37;;;;;;;10.73;8.75;;;6.50;99.90;;;;;;5105375;27;20039;-67
2022/11/13 04:25:03;;;;;;;10.27;8.65;;;6.40;99.90;;;;;;5099783;28;20042;-67
2022/11/13 04:27:29;;;;;;;10.23;8.68;;;6.40;99.90;;;;;;5104617;28;20048;-65
2022/11/13 04:29:55;;;;;;;9.52;8.43;;;6.40;99.90;;;;;;5100434;28;20097;-66
2022/11/13 04:32:20;;;;;;;10.60;8.90;;;6.30;99.90;;;;;;5099727;28;20047;-68
2022/11/13 04:34:46;;;;;;;10.82;8.98;;;6.20;99.90;;;;;;5104246;28;20410;-67
2022/11/13 04:37:11;;;;;;;9.57;8.27;;;6.20;99.90;;;;;;5097838;28;20147;-67
2022/11/13 04:39:37;;;;;;;9.18;7.68;;;6.20;99.90;;;;;;5103112;28;20084;-67
2022/11/13 04:44:47;;;;;;;10.85;8.52;;;6.20;99.90;;;;;;5098950;27;20031;-65
2022/11/13 04:47:12;;;;;;;11.07;8.85;;;6.20;99.90;;;;;;5123474;27;20133;-68
2022/11/13 04:49:38;;;;;;;11.30;8.55;;;6.20;99.90;;;;;;5105578;28;20374;-67
2022/11/13 04:52:04;;;;;;;11.63;8.68;;;6.20;99.90;;;;;;5108141;28;20549;-68
2022/11/13 04:54:30;;;;;;;11.32;8.63;;;6.20;99.90;;;;;;5105341;28;20047;-67
2022/11/13 04:56:55;;;;;;;11.75;8.75;;;6.10;99.90;;;;;;5104973;28;20097;-65
2022/11/13 04:59:21;;;;;;;11.32;8.38;;;6.10;99.90;;;;;;5104926;28;20090;-67
2022/11/13 05:01:47;;;;;;;10.27;8.68;;;6.10;99.90;;;;;;5107492;28;20473;-65
2022/11/13 05:04:14;;;;;;;11.52;8.18;;;6.10;99.90;;;;;;5102285;28;20032;-67
2022/11/13 05:06:40;;;;;;;10.88;8.60;;;6.10;99.90;;;;;;5110097;28;20535;-65
2022/11/13 05:09:05;;;;;;;11.05;7.60;;;6.10;99.90;;;;;;5105272;28;20042;-66
2022/11/13 05:11:31;;;;;;;12.23;8.65;;;6.00;99.90;;;;;;5124924;28;20490;-67
2022/11/13 05:13:57;;;;;;;10.15;8.40;;;6.00;99.90;;;;;;5107904;28;20042;-66
2022/11/13 05:16:22;;;;;;;11.57;8.27;;;6.00;99.90;;;;;;5105979;28;20546;-66
2022/11/13 05:18:48;;;;;;;12.20;9.77;;;6.10;99.90;;;;;;5109970;28;20046;-67
2022/11/13 05:21:13;;;;;;;10.93;9.05;;;6.10;99.90;;;;;;5103357;28;20434;-67
2022/11/13 05:23:39;;;;;;;12.00;9.02;;;6.10;99.90;;;;;;5110162;28;20095;-68
2022/11/13 05:26:08;;;;;;;12.52;9.90;;;6.10;99.90;;;;;;5107547;28;20045;-66
2022/11/13 05:28:34;;;;;;;14.07;11.13;;;6.20;99.90;;;;;;5109691;28;20046;-66
2022/11/13 05:31:11;;;;;;;14.02;9.90;;;6.20;99.90;;;;;;5088942;28;20458;-67
2022/11/13 05:33:38;;;;;;;12.88;10.70;;;6.20;99.90;;;;;;5108371;28;20039;-67
2022/11/13 05:36:09;;;;;;;14.38;10.27;;;6.30;99.90;;;;;;5088751;28;20047;-66
2022/11/13 05:38:36;;;;;;;14.10;10.95;;;6.30;99.90;;;;;;5105567;28;20035;-67
2022/11/13 05:41:06;;;;;;;13.13;10.00;;;6.30;99.90;;;;;;5102737;28;20387;-67
2022/11/13 05:43:33;;;;;;;13.73;10.05;;;6.30;99.90;;;;;;5102416;28;20047;-68
2022/11/13 05:46:05;;;;;;;13.63;10.40;;;6.30;99.90;;;;;;5103467;28;20035;-68
2022/11/13 05:48:31;;;;;;;;;;;6.30;99.90;;;;;;5105799;28;20044;-67
2022/11/13 05:51:11;;;;;;;13.40;10.00;;;6.30;99.90;;;;;;5103496;28;19916;-67
2022/11/13 05:53:37;;;;;;;14.43;10.15;;;6.30;99.90;;;;;;5110482;28;20039;-66
2022/11/13 05:56:18;;;;;;;12.95;9.88;;;6.30;99.90;;;;;;5108034;28;20120;-67
2022/11/13 05:58:45;;;;;;;13.45;10.00;;;6.40;99.90;;;;;;5102442;28;20046;-67
2022/11/13 06:01:12;;;;;;;13.63;10.60;;;6.40;99.90;;;;;;5109699;28;20485;-66
2022/11/13 06:03:38;;;;;;;12.75;9.70;;;6.40;99.90;;;;;;5108001;28;20035;-68
2022/11/13 06:06:09;;;;;;;12.27;9.80;;;6.40;99.90;;;;;;5105007;28;20069;-67
2022/11/13 06:08:35;;;;;;;10.63;8.70;;;6.40;99.90;;;;;;5108774;28;20059;-67
2022/11/13 06:11:04;;;;;;;13.45;9.57;;;6.40;99.90;;;;;;5103416;28;20036;-66
2022/11/13 06:13:30;;;;;;;10.25;8.82;;;6.30;99.90;;;;;;5105922;28;20101;-66
2022/11/13 06:16:20;;;;;;;11.13;8.93;;;6.20;99.90;;;;;;5109660;28;20039;-67
2022/11/13 06:18:47;;;;;;;13.40;9.15;;;6.20;99.90;;;;;;5100516;28;20456;-67
2022/11/13 06:21:18;;;;;;;10.77;9.43;;;6.10;99.90;;;;;;5104143;28;20474;-66
2022/11/13 06:23:44;;;;;;;12.07;10.30;;;6.10;99.90;;;;;;5109647;28;20497;-67
2022/11/13 06:26:11;;;;;;;11.75;9.95;;;6.00;99.90;;;;;;5107539;28;20084;-66
2022/11/13 06:28:37;;;;;;;12.10;9.27;;;6.00;99.90;;;;;;5105994;28;20052;-67
2022/11/13 06:31:09;;;;;;;12.02;9.85;;;6.00;99.90;;;;;;5089823;28;20039;-67
2022/11/13 06:33:35;;;;;;;9.45;8.38;;;5.90;99.90;;;;;;5108774;28;20084;-67
2022/11/13 06:36:05;;;;;;;11.88;8.50;;;5.90;99.90;;;;;;5099944;28;20066;-65
2022/11/13 06:38:32;;;;;;;11.27;9.35;;;5.90;99.90;;;;;;5101498;28;20414;-68
2022/11/13 06:40:59;;;;;;;11.63;8.68;;;5.80;99.90;;;;;;5102701;28;20047;-66
2022/11/13 06:43:25;;;;;;;11.02;9.45;;;5.80;99.90;;;;;;5106265;28;20387;-67
2022/11/13 06:45:50;;;;;;;10.65;9.27;;;5.80;99.90;;;;;;5104424;28;20040;-66
2022/11/13 06:48:16;;;;;;;11.32;8.63;;;5.80;99.90;;;;;;5090055;28;20058;-67
2022/11/13 06:50:42;;;;;;;11.63;9.50;;;5.80;99.90;;;;;;5104980;28;20039;-67
2022/11/13 06:53:07;;;;;;;10.57;8.35;;;5.70;99.90;;;;;;5104797;28;20516;-67
2022/11/13 06:55:33;;;;;;;10.05;8.90;;;5.70;99.90;;;;;;5098951;28;20044;-66
2022/11/13 06:57:58;;;;;;;10.65;8.70;;;5.70;99.90;;;;;;5098461;28;20047;-65
2022/11/13 07:00:24;;;;;;;13.43;9.43;;;5.70;99.90;;;;;;5103252;28;20044;-67
2022/11/13 07:02:50;;;;;;;10.80;9.27;;;5.70;99.90;;;;;;5100765;28;20087;-67
2022/11/13 07:05:16;;;;;;;13.20;9.60;;;5.70;99.90;;;;;;5095713;28;20036;-68
2022/11/13 07:07:42;;;;;;;9.90;8.43;;;5.70;99.90;;;;;;5085529;28;20060;-66
2022/11/13 07:10:08;;;;;;;9.73;8.63;;;5.80;99.90;;;;;;5087880;28;20055;-68
2022/11/13 07:12:33;;;;;;;11.88;8.40;;;5.80;99.90;;;;;;5110431;28;20043;-66
2022/11/13 07:14:59;;;;;;;13.43;9.93;;;5.80;99.90;;;;;;5111469;28;20397;-67
2022/11/13 07:17:26;;;;;;;13.13;9.88;;;5.80;99.90;;;;;;5110570;28;20410;-68
2022/11/13 07:19:52;;;;;;;11.20;9.18;;;5.80;99.90;;;;;;5109652;28;20039;-66
2022/11/13 07:22:17;;;;;;;12.73;10.35;;;5.80;99.90;;;;;;5108153;28;20039;-68
2022/11/13 07:24:43;;;;;;;11.63;9.35;;;5.90;99.90;;;;;;5110880;28;20120;-66
2022/11/13 07:27:09;;;;;;;11.43;9.18;;;5.80;99.90;;;;;;5104463;28;20520;-66
2022/11/13 07:29:35;;;;;;;12.35;9.88;;;5.90;99.90;;;;;;5107521;28;20043;-67
2022/11/13 07:32:01;;;;;;;13.48;9.52;;;5.90;99.90;;;;;;5108926;28;20057;-67
2022/11/13 07:34:26;;;;;;;11.43;9.95;;;5.90;99.90;;;;;;5106918;28;20448;-67
2022/11/13 07:36:52;;;;;;;13.10;10.50;;;6.00;99.90;;;;;;5108420;28;20040;-67
2022/11/13 07:39:18;;;;;;;13.82;10.27;;;6.00;99.90;;;;;;5110939;28;20039;-67
2022/11/13 07:41:43;;;;;;;15.18;10.55;;;6.10;99.90;;;;;;5107886;28;20043;-67
2022/11/13 07:44:09;;;;;;;14.30;10.23;;;6.10;99.90;;;;;;5109995;28;20039;-67
2022/11/13 07:46:34;;;;;;;13.73;11.05;;;6.20;99.90;;;;;;5099876;28;20044;-67
2022/11/13 07:49:00;;;;;;;14.65;11.00;;;6.30;99.90;;;;;;5107798;28;20118;-67
2022/11/13 07:51:26;;;;;;;14.13;11.02;;;6.30;99.90;;;;;;5103734;28;20101;-67
2022/11/13 07:53:51;;;;;;;13.20;10.23;;;6.40;99.90;;;;;;5103755;28;20040;-67
2022/11/13 07:56:17;;;;;;;15.23;11.05;;;6.40;99.90;;;;;;5085925;28;20048;-66
2022/11/13 07:58:42;;;;;;;14.45;10.50;;;6.50;99.90;;;;;;5109300;28;20067;-66
2022/11/13 08:01:09;;;;;;;14.38;10.82;;;6.60;99.90;;;;;;5109589;28;20028;-66
2022/11/13 08:03:35;;;;;;;14.05;10.95;;;6.60;99.90;;;;;;5103017;28;20609;-66
2022/11/13 08:06:04;;;;;;;17.25;10.93;;;6.70;99.90;;;;;;5100406;28;20031;-68
2022/11/13 08:08:30;;;;;;;13.70;11.68;;;6.80;99.90;;;;;;5106555;28;20061;-66
2022/11/13 08:10:56;;;;;;;14.48;11.23;;;6.90;99.90;;;;;;5108024;28;20486;-67
2022/11/13 08:13:21;;;;;;;14.30;10.80;;;6.90;99.90;;;;;;5109784;28;20047;-67
2022/11/13 08:15:47;;;;;;;13.75;11.05;;;7.00;99.90;;;;;;5107785;28;20054;-67
2022/11/13 08:18:13;;;;;;;15.30;11.52;;;7.10;99.90;;;;;;5107954;27;20051;-64
2022/11/13 08:20:38;;;;;;;14.05;11.05;;;7.10;99.90;;;;;;5110002;28;20031;-67
2022/11/13 08:23:04;;;;;;;13.27;10.75;;;7.10;99.90;;;;;;5109633;28;20035;-69
2022/11/13 08:25:31;;;;;;;13.45;10.55;;;7.20;99.90;;;;;;5106038;28;20039;-67
2022/11/13 08:27:58;;;;;;;12.40;10.88;;;7.30;99.90;;;;;;5103680;28;20536;-67
2022/11/13 08:30:25;;;;;;;12.60;10.50;;;7.40;99.90;;;;;;5108184;28;20051;-67
2022/11/13 08:32:51;;;;;;;12.60;10.68;;;7.40;99.90;;;;;;5104850;28;20051;-68
2022/11/13 08:35:18;;;;;;;13.45;10.27;;;7.50;99.90;;;;;;5108847;28;20031;-67
2022/11/13 08:37:43;;;;;;;11.95;9.98;;;7.60;99.90;;;;;;5109133;28;20510;-67
2022/11/13 08:40:10;;;;;;;13.75;10.57;;;7.70;99.90;;;;;;5116690;27;20047;-66
2022/11/13 08:42:35;;;;;;;13.70;10.23;;;7.80;99.90;;;;;;5089978;28;20388;-67
2022/11/13 08:45:01;;;;;;;14.48;11.57;;;7.90;99.90;;;;;;5106672;27;20039;-65
2022/11/13 08:47:28;;;;;;;12.73;10.30;;;8.00;99.90;;;;;;5093689;27;20078;-68
2022/11/13 08:49:54;;;;;;;12.05;10.20;;;8.10;99.90;;;;;;5112502;27;20046;-68
2022/11/13 08:52:20;;;;;;;10.88;9.52;;;8.30;99.90;;;;;;5112334;27;20122;-67
2022/11/13 08:54:45;;;;;;;10.60;8.68;;;8.40;99.90;;;;;;5111976;28;20588;-69
2022/11/13 08:57:11;;;;;;;10.82;8.93;;;8.60;99.90;;;;;;5127994;27;20041;-67
2022/11/13 08:59:37;;;;;;;10.60;8.90;;;8.70;99.90;;;;;;5129438;28;20412;-68
2022/11/13 09:02:03;;;;;;;11.63;8.80;;;8.90;99.90;;;;;;5112493;28;20126;-68
2022/11/13 09:04:29;;;;;;;10.18;8.82;;;9.00;99.90;;;;;;5111126;28;20103;-67
2022/11/13 09:06:54;;;;;;;10.60;9.02;;;9.20;99.90;;;;;;5112927;28;20043;-67
2022/11/13 09:09:21;;;;;;;10.02;8.93;;;9.40;99.90;;;;;;5112382;28;20077;-69
2022/11/13 09:11:47;;;;;;;10.30;8.60;;;9.60;99.90;;;;;;5091850;28;20044;-67
2022/11/13 09:14:13;;;;;;;10.65;8.65;;;9.70;99.90;;;;;;5109782;28;20054;-66
2022/11/13 09:16:38;;;;;;;11.13;8.80;;;10.00;99.90;;;;;;5112025;28;22269;-67
2022/11/13 09:19:04;;;;;;;10.32;8.60;;;10.20;99.90;;;;;;5111277;28;20032;-68
2022/11/13 09:21:30;;;;;;;9.88;8.05;;;10.40;99.90;;;;;;5112881;27;20108;-68
2022/11/13 09:23:56;;;;;;;9.25;8.10;;;10.60;99.90;;;;;;5099524;27;20050;-68
2022/11/13 09:26:21;;;;;;;9.73;8.02;;;10.80;99.90;;;;;;5116530;27;20042;-67
2022/11/13 09:28:47;;;;;;;11.60;7.40;;;11.00;99.90;;;;;;5098183;27;20047;-66
2022/11/13 09:31:13;;;;;;;9.13;7.90;;;11.30;99.90;;;;;;5134111;27;20144;-67
2022/11/13 09:33:39;;;;;;;9.85;7.80;;;11.50;99.90;;;;;;5116036;27;20035;-67
2022/11/13 09:36:14;;;;;;;10.55;8.15;;;11.80;99.90;;;;;;5115285;27;20572;-68
2022/11/13 09:38:40;;;;;;;8.48;7.57;;;12.10;99.90;;;;;;5115836;27;20058;-67
2022/11/13 09:41:13;;;;;;;7.80;7.00;;;12.30;99.90;;;;;;5099290;27;20051;-67
2022/11/13 09:43:43;;;;;;;9.80;8.10;;;12.50;99.90;;;;;;5115929;27;20050;-67
2022/11/13 09:46:18;;;;;;;8.15;7.35;;;12.70;99.90;;;;;;5098227;27;20034;-68
2022/11/13 09:48:53;;;;;;;8.30;7.18;;;12.90;99.90;;;;;;5115758;27;20098;-69
2022/11/13 09:51:23;;;;;;;10.00;7.00;;;13.20;99.90;;;;;;5098533;27;20490;-68
2022/11/13 09:53:49;;;;;;;8.85;6.93;;;13.40;99.90;;;;;;5116029;27;20035;-68
2022/11/13 09:56:38;;;;;;;8.27;7.38;;;13.60;99.90;;;;;;5116482;27;20031;-66
2022/11/13 09:59:24;;;;;;;8.10;7.15;;;13.80;99.90;;;;;;5114959;27;20109;-67
2022/11/13 10:02:13;;;;;;;7.72;6.88;;;14.10;99.90;;;;;;5114427;27;20058;-66
2022/11/13 10:05:00;;;;;;;9.10;7.03;;;14.30;99.90;;;;;;5116019;27;20493;-68
2022/11/13 10:08:01;;;;;;;7.20;6.45;;;14.60;99.90;;;;;;5115310;27;20035;-67
2022/11/13 10:10:27;;;;;;;7.00;6.30;;;14.80;99.90;;;;;;5013850;28;20075;-68
2022/11/13 10:12:55;;;;;;;8.45;6.32;;;14.70;99.90;;;;;;5014021;28;20065;-67
2022/11/13 10:15:21;;;;;;;6.78;6.07;;;14.80;99.90;;;;;;5014615;28;20496;-67
2022/11/13 10:17:54;;;;;;;7.55;6.05;;;15.00;99.90;;;;;;5023827;28;20141;-69
2022/11/13 10:20:31;;;;;;;6.88;5.97;;;15.10;99.90;;;;;;5009465;28;20069;-67
2022/11/13 10:23:23;;;;;;;6.85;5.85;;;15.30;99.90;;;;;;5017777;28;20065;-66
2022/11/13 10:25:51;;;;;;;6.60;5.57;;;15.50;99.90;;;;;;4995728;28;20065;-68
2022/11/13 10:28:24;;;;;;;8.18;6.15;;;15.70;99.90;;;;;;5013065;28;20175;-68
2022/11/13 10:30:50;;;;;;;7.57;5.95;;;15.90;99.90;;;;;;5013931;28;20046;-68
2022/11/13 10:33:18;;;;;;;8.52;5.85;;;16.00;99.90;;;;;;5026721;28;20049;-67
2022/11/13 10:36:13;;;;;;;6.32;5.35;;;16.10;99.90;;;;;;5010175;28;20064;-67
2022/11/13 10:38:43;;;;;;;7.40;5.43;;;16.30;99.90;;;;;;5012535;28;20065;-67
2022/11/13 10:41:18;;;;;;;7.05;5.72;;;16.40;99.90;;;;;;5011002;28;20045;-69
2022/11/13 10:43:56;;;;;;;6.47;5.85;;;16.50;99.90;;;;;;5013469;28;20049;-67
2022/11/13 10:46:25;;;;;;;8.23;6.15;;;16.70;99.90;;;;;;5080341;27;20051;-67
2022/11/13 10:48:51;;;;;;;6.60;5.90;;;16.80;99.90;;;;;;5113644;27;20565;-68
2022/11/13 10:51:22;;;;;;;6.30;5.65;;;16.90;99.90;;;;;;5109739;27;20039;-68
2022/11/13 10:53:48;;;;;;;6.70;5.53;;;16.90;99.90;;;;;;5100288;27;20130;-68
2022/11/13 10:56:34;;;;;;;6.70;5.60;;;16.90;99.90;;;;;;5112608;27;20126;-68
2022/11/13 10:59:09;;;;;;;6.13;5.20;;;16.90;99.90;;;;;;5113231;27;20046;-69
2022/11/13 11:01:35;;;;;;;5.70;5.10;;;16.80;99.90;;;;;;5110678;27;20031;-68
2022/11/13 11:04:22;;;;;;;7.15;5.68;;;16.70;99.90;;;;;;5114475;27;20144;-67
2022/11/13 11:06:49;;;;;;;5.55;4.95;;;16.60;99.90;;;;;;5114076;27;20050;-67
2022/11/13 11:09:24;;;;;;;7.32;5.70;;;16.40;99.90;;;;;;5113467;27;20470;-67
2022/11/13 11:12:20;;;;;;;7.72;6.47;;;16.20;99.90;;;;;;5110876;27;20079;-66
2022/11/13 11:15:00;;;;;;;6.03;5.50;;;16.00;99.90;;;;;;5114808;27;20168;-66
2022/11/13 11:17:46;;;;;;;6.07;5.47;;;16.00;99.90;;;;;;5097537;27;20058;-68
2022/11/13 11:20:46;;;;;;;6.00;5.40;;;15.90;99.90;;;;;;5112912;27;20389;-68
2022/11/13 11:23:54;;;;;;;5.70;4.63;;;15.80;99.90;;;;;;5115160;27;20079;-67
2022/11/13 11:26:32;;;;;;;6.30;5.20;;;15.70;99.90;;;;;;5113261;27;20393;-66
2022/11/13 11:29:31;;;;;;;6.45;5.80;;;15.70;99.90;;;;;;5114185;27;20054;-67
2022/11/13 11:32:15;;;;;;;6.13;5.47;;;15.50;99.90;;;;;;5089371;27;20043;-68
2022/11/13 11:34:43;;;;;;;6.32;5.72;;;15.50;99.90;;;;;;5108938;27;20496;-69
2022/11/13 11:37:16;;;;;;;6.25;5.50;;;15.40;99.90;;;;;;5112740;27;20110;-68
2022/11/13 11:39:41;;;;;;;;;;;15.30;99.90;;;;;;5107825;27;20035;-66
2022/11/13 11:42:32;;;;;;;6.75;6.05;;;15.30;99.90;;;;;;5106660;27;19983;-68
2022/11/13 11:45:14;;;;;;;8.25;5.90;;;15.30;99.90;;;;;;5112046;27;20035;-69
2022/11/13 11:47:40;;;;;;;7.65;5.32;;;15.50;99.90;;;;;;5112572;27;20126;-67
2022/11/13 11:50:12;;;;;;;7.53;5.50;;;15.50;99.90;;;;;;5112307;27;20110;-68
2022/11/13 11:52:41;;;;;;;6.40;5.70;;;15.50;99.90;;;;;;5109507;27;20039;-68
2022/11/13 11:55:32;;;;;;;6.00;5.40;;;15.60;99.90;;;;;;5095197;27;20531;-66
2022/11/13 11:58:16;;;;;;;6.55;5.68;;;15.90;99.90;;;;;;5111368;27;20499;-67
2022/11/13 12:00:49;;;;;;;6.53;5.25;;;16.60;99.90;;;;;;5113771;27;20035;-69
2022/11/13 12:03:27;;;;;;;5.85;5.20;;;16.40;99.90;;;;;;5110451;27;20063;-68
2022/11/13 12:06:16;;;;;;;6.00;4.80;;;16.10;99.90;;;;;;5109978;27;20046;-67
2022/11/13 12:09:09;;;;;;;5.10;4.60;;;16.80;99.90;;;;;;5107668;27;20501;-69
2022/11/13 12:11:55;;;;;;;6.45;4.95;;;16.60;99.90;;;;;;5113422;27;20146;-67
2022/11/13 12:15:02;;;;;;;5.88;5.28;;;16.60;99.90;;;;;;5113354;27;20484;-67
2022/11/13 12:17:31;;;;;;;7.35;5.35;;;16.50;99.90;;;;;;4985778;28;20078;-69
2022/11/13 12:20:15;;;;;;;6.97;5.07;;;16.40;99.90;;;;;;5012065;28;20045;-67
2022/11/13 12:23:29;;;;;;;6.45;5.30;;;16.30;99.90;;;;;;4995745;28;20041;-67
2022/11/13 12:26:09;;;;;;;6.47;5.68;;;16.30;99.90;;;;;;4987767;28;20054;-69
2022/11/13 12:28:48;;;;;;;6.47;5.43;;;16.30;99.90;;;;;;4992463;28;20390;-66
2022/11/13 12:31:22;;;;;;;7.03;5.75;;;16.20;99.90;;;;;;4992194;28;20053;-67
2022/11/13 12:34:16;;;;;;;7.60;5.43;;;16.20;99.90;;;;;;4992253;28;20485;-66
2022/11/13 12:36:42;;;;;;;6.72;6.03;;;16.20;99.90;;;;;;4992293;28;20050;-68
2022/11/13 12:39:26;;;;;;;7.07;5.60;;;16.00;99.90;;;;;;4975352;28;20137;-68
2022/11/13 12:42:01;;;;;;;7.38;5.60;;;16.10;99.90;;;;;;4992185;28;20045;-67
2022/11/13 12:44:29;;;;;;;6.57;5.60;;;16.20;99.90;;;;;;5008106;28;20045;-68
2022/11/13 12:46:59;;;;;;;6.10;5.25;;;16.10;99.90;;;;;;4975566;28;20170;-69
2022/11/13 12:49:32;;;;;;;6.55;5.32;;;16.40;99.90;;;;;;4991472;28;20140;-67
2022/11/13 12:52:17;;;;;;;5.80;5.25;;;16.40;99.90;;;;;;4972350;28;20054;-67
2022/11/13 12:54:42;;;;;;;6.03;5.43;;;16.30;99.90;;;;;;5038855;28;20127;-67
2022/11/13 12:57:11;;;;;;;7.88;5.57;;;16.20;99.90;;;;;;5053772;28;20181;-68
2022/11/13 12:59:40;;;;;;;6.18;5.47;;;16.10;99.90;;;;;;5053080;28;20045;-67